sensor_id;sensor_type;location;lat;lon;timestamp;P1;P2;P0
55549;PMS7003;41397;49.972;18.944;2023-12-04T00:02:56;20;20;13
55549;PMS7003;41397;49.972;18.944;2023-12-04T00:05:58;20;20;14
55549;PMS7003;41397;49.972;18.944;2023-12-04T00:08:59;23;23;15
55549;PMS7003;41397;49.972;18.944;2023-12-04T00:12:00;31;22;16
55549;PMS7003;41397;49.972;18.944;2023-12-04T00:15:05;21;21;16
55549;PMS7003;41397;49.972;18.944;2023-12-04T00:18:07;23;23;13
55549;PMS7003;41397;49.972;18.944;2023-12-04T00:21:08;20;20;9
55549;PMS7003;41397;49.972;18.944;2023-12-04T00:24:10;23;22;12
55549;PMS7003;41397;49.972;18.944;2023-12-04T00:27:13;16;16;12
55549;PMS7003;41397;49.972;18.944;2023-12-04T00:30:14;29;25;16
55549;PMS7003;41397;49.972;18.944;2023-12-04T00:33:22;20;20;14
55549;PMS7003;41397;49.972;18.944;2023-12-04T00:36:23;15;15;13
55549;PMS7003;41397;49.972;18.944;2023-12-04T00:39:24;20;20;13
55549;PMS7003;41397;49.972;18.944;2023-12-04T00:42:25;23;21;14
55549;PMS7003;41397;49.972;18.944;2023-12-04T00:45:27;22;21;18
55549;PMS7003;41397;49.972;18.944;2023-12-04T00:48:28;22;22;15
55549;PMS7003;41397;49.972;18.944;2023-12-04T00:51:36;22;22;18
55549;PMS7003;41397;49.972;18.944;2023-12-04T00:54:49;22;21;16
55549;PMS7003;41397;49.972;18.944;2023-12-04T00:57:50;20;20;13
55549;PMS7003;41397;49.972;18.944;2023-12-04T01:00:51;26;24;16
55549;PMS7003;41397;49.972;18.944;2023-12-04T01:03:53;25;25;15
55549;PMS7003;41397;49.972;18.944;2023-12-04T01:06:57;21;21;17
55549;PMS7003;41397;49.972;18.944;2023-12-04T01:09:58;22;22;15
55549;PMS7003;41397;49.972;18.944;2023-12-04T01:12:59;21;21;16
55549;PMS7003;41397;49.972;18.944;2023-12-04T01:16:01;22;19;14
55549;PMS7003;41397;49.972;18.944;2023-12-04T01:19:05;23;23;16
55549;PMS7003;41397;49.972;18.944;2023-12-04T01:22:06;19;19;15
55549;PMS7003;41397;49.972;18.944;2023-12-04T01:25:08;20;20;15
55549;PMS7003;41397;49.972;18.944;2023-12-04T01:28:11;17;17;13
55549;PMS7003;41397;49.972;18.944;2023-12-04T01:31:14;17;17;13
55549;PMS7003;41397;49.972;18.944;2023-12-04T01:34:15;26;25;17
55549;PMS7003;41397;49.972;18.944;2023-12-04T01:37:16;24;24;15
55549;PMS7003;41397;49.972;18.944;2023-12-04T01:40:18;25;25;17
55549;PMS7003;41397;49.972;18.944;2023-12-04T01:43:22;28;27;17
55549;PMS7003;41397;49.972;18.944;2023-12-04T01:46:23;17;17;14
55549;PMS7003;41397;49.972;18.944;2023-12-04T01:49:25;21;21;14
55549;PMS7003;41397;49.972;18.944;2023-12-04T01:52:26;29;25;17
55549;PMS7003;41397;49.972;18.944;2023-12-04T01:55:30;23;22;17
55549;PMS7003;41397;49.972;18.944;2023-12-04T01:58:34;21;21;14
55549;PMS7003;41397;49.972;18.944;2023-12-04T02:01:36;30;25;19
55549;PMS7003;41397;49.972;18.944;2023-12-04T02:04:39;31;26;17
55549;PMS7003;41397;49.972;18.944;2023-12-04T02:07:40;19;19;14
55549;PMS7003;41397;49.972;18.944;2023-12-04T02:10:43;20;20;12
55549;PMS7003;41397;49.972;18.944;2023-12-04T02:13:44;23;23;15
55549;PMS7003;41397;49.972;18.944;2023-12-04T02:16:46;18;18;15
55549;PMS7003;41397;49.972;18.944;2023-12-04T02:19:49;19;19;14
55549;PMS7003;41397;49.972;18.944;2023-12-04T02:22:51;25;24;16
55549;PMS7003;41397;49.972;18.944;2023-12-04T02:25:53;23;23;16
55549;PMS7003;41397;49.972;18.944;2023-12-04T02:29:01;21;18;13
55549;PMS7003;41397;49.972;18.944;2023-12-04T02:32:08;23;23;15
55549;PMS7003;41397;49.972;18.944;2023-12-04T02:35:16;22;22;17
55549;PMS7003;41397;49.972;18.944;2023-12-04T02:38:22;19;19;15
55549;PMS7003;41397;49.972;18.944;2023-12-04T02:41:24;34;27;17
55549;PMS7003;41397;49.972;18.944;2023-12-04T02:44:25;23;19;10
55549;PMS7003;41397;49.972;18.944;2023-12-04T02:47:27;25;24;16
55549;PMS7003;41397;49.972;18.944;2023-12-04T02:50:28;28;26;18
55549;PMS7003;41397;49.972;18.944;2023-12-04T02:53:29;34;28;18
55549;PMS7003;41397;49.972;18.944;2023-12-04T02:56:31;24;24;18
55549;PMS7003;41397;49.972;18.944;2023-12-04T02:59:32;20;20;15
55549;PMS7003;41397;49.972;18.944;2023-12-04T03:02:33;32;26;19
55549;PMS7003;41397;49.972;18.944;2023-12-04T03:05:34;28;26;17
55549;PMS7003;41397;49.972;18.944;2023-12-04T03:08:36;28;24;17
55549;PMS7003;41397;49.972;18.944;2023-12-04T03:11:39;28;27;14
55549;PMS7003;41397;49.972;18.944;2023-12-04T03:14:41;27;25;16
55549;PMS7003;41397;49.972;18.944;2023-12-04T03:17:42;25;24;18
55549;PMS7003;41397;49.972;18.944;2023-12-04T03:20:43;24;24;17
55549;PMS7003;41397;49.972;18.944;2023-12-04T03:23:47;25;23;15
55549;PMS7003;41397;49.972;18.944;2023-12-04T03:26:48;30;28;19
55549;PMS7003;41397;49.972;18.944;2023-12-04T03:29:49;34;31;19
55549;PMS7003;41397;49.972;18.944;2023-12-04T03:32:50;28;27;18
55549;PMS7003;41397;49.972;18.944;2023-12-04T03:35:55;31;28;18
55549;PMS7003;41397;49.972;18.944;2023-12-04T03:38:56;24;22;17
55549;PMS7003;41397;49.972;18.944;2023-12-04T03:41:58;25;24;17
55549;PMS7003;41397;49.972;18.944;2023-12-04T03:44:59;37;32;20
55549;PMS7003;41397;49.972;18.944;2023-12-04T03:48:03;41;35;22
55549;PMS7003;41397;49.972;18.944;2023-12-04T03:51:05;35;31;20
55549;PMS7003;41397;49.972;18.944;2023-12-04T03:54:06;41;35;24
55549;PMS7003;41397;49.972;18.944;2023-12-04T03:57:08;34;31;21
55549;PMS7003;41397;49.972;18.944;2023-12-04T04:00:12;42;34;20
55549;PMS7003;41397;49.972;18.944;2023-12-04T04:03:13;40;30;20
55549;PMS7003;41397;49.972;18.944;2023-12-04T04:06:15;36;32;21
55549;PMS7003;41397;49.972;18.944;2023-12-04T04:09:16;36;32;21
55549;PMS7003;41397;49.972;18.944;2023-12-04T04:12:20;39;34;21
55549;PMS7003;41397;49.972;18.944;2023-12-04T04:15:21;43;37;24
55549;PMS7003;41397;49.972;18.944;2023-12-04T04:18:23;37;32;21
55549;PMS7003;41397;49.972;18.944;2023-12-04T04:21:24;43;36;26
55549;PMS7003;41397;49.972;18.944;2023-12-04T04:24:28;40;35;25
55549;PMS7003;41397;49.972;18.944;2023-12-04T04:27:29;46;38;25
55549;PMS7003;41397;49.972;18.944;2023-12-04T04:30:31;42;35;25
55549;PMS7003;41397;49.972;18.944;2023-12-04T04:33:32;36;32;22
55549;PMS7003;41397;49.972;18.944;2023-12-04T04:36:36;47;39;24
55549;PMS7003;41397;49.972;18.944;2023-12-04T04:39:39;46;37;26
55549;PMS7003;41397;49.972;18.944;2023-12-04T04:42:40;46;37;24
55549;PMS7003;41397;49.972;18.944;2023-12-04T04:45:41;42;36;25
55549;PMS7003;41397;49.972;18.944;2023-12-04T04:48:44;51;42;26
55549;PMS7003;41397;49.972;18.944;2023-12-04T04:51:45;37;33;20
55549;PMS7003;41397;49.972;18.944;2023-12-04T04:54:47;40;34;23
55549;PMS7003;41397;49.972;18.944;2023-12-04T04:57:48;38;33;21
55549;PMS7003;41397;49.972;18.944;2023-12-04T05:00:52;42;35;20
55549;PMS7003;41397;49.972;18.944;2023-12-04T05:03:53;29;27;17
55549;PMS7003;41397;49.972;18.944;2023-12-04T05:06:55;34;30;19
55549;PMS7003;41397;49.972;18.944;2023-12-04T05:09:56;33;29;19
55549;PMS7003;41397;49.972;18.944;2023-12-04T05:13:01;37;31;20
55549;PMS7003;41397;49.972;18.944;2023-12-04T05:16:02;29;27;20
55549;PMS7003;41397;49.972;18.944;2023-12-04T05:19:03;34;30;18
55549;PMS7003;41397;49.972;18.944;2023-12-04T05:22:05;29;27;18
55549;PMS7003;41397;49.972;18.944;2023-12-04T05:25:09;34;29;20
55549;PMS7003;41397;49.972;18.944;2023-12-04T05:28:10;39;33;22
55549;PMS7003;41397;49.972;18.944;2023-12-04T05:31:11;35;29;20
55549;PMS7003;41397;49.972;18.944;2023-12-04T05:34:13;37;28;18
55549;PMS7003;41397;49.972;18.944;2023-12-04T05:37:17;33;30;18
55549;PMS7003;41397;49.972;18.944;2023-12-04T05:40:18;40;32;19
55549;PMS7003;41397;49.972;18.944;2023-12-04T05:43:20;26;24;18
55549;PMS7003;41397;49.972;18.944;2023-12-04T05:46:22;28;26;19
55549;PMS7003;41397;49.972;18.944;2023-12-04T05:49:25;42;36;24
55549;PMS7003;41397;49.972;18.944;2023-12-04T05:52:26;44;35;22
55549;PMS7003;41397;49.972;18.944;2023-12-04T05:55:29;50;41;27
55549;PMS7003;41397;49.972;18.944;2023-12-04T05:58:31;56;46;26
55549;PMS7003;41397;49.972;18.944;2023-12-04T06:01:33;60;48;27
55549;PMS7003;41397;49.972;18.944;2023-12-04T06:04:35;65;51;29
55549;PMS7003;41397;49.972;18.944;2023-12-04T06:07:36;64;52;27
55549;PMS7003;41397;49.972;18.944;2023-12-04T06:10:38;67;52;32
55549;PMS7003;41397;49.972;18.944;2023-12-04T06:13:42;59;51;30
55549;PMS7003;41397;49.972;18.944;2023-12-04T06:16:43;60;52;34
55549;PMS7003;41397;49.972;18.944;2023-12-04T06:19:45;66;60;35
55549;PMS7003;41397;49.972;18.944;2023-12-04T06:22:47;72;57;34
55549;PMS7003;41397;49.972;18.944;2023-12-04T06:25:55;71;68;36
55549;PMS7003;41397;49.972;18.944;2023-12-04T06:29:09;62;54;32
55549;PMS7003;41397;49.972;18.944;2023-12-04T06:32:11;65;55;34
55549;PMS7003;41397;49.972;18.944;2023-12-04T06:35:13;60;50;29
55549;PMS7003;41397;49.972;18.944;2023-12-04T06:38:15;59;51;32
55549;PMS7003;41397;49.972;18.944;2023-12-04T06:41:19;68;58;33
55549;PMS7003;41397;49.972;18.944;2023-12-04T06:44:22;73;62;37
55549;PMS7003;41397;49.972;18.944;2023-12-04T06:47:23;58;47;28
55549;PMS7003;41397;49.972;18.944;2023-12-04T06:50:25;67;57;33
55549;PMS7003;41397;49.972;18.944;2023-12-04T06:53:26;62;54;31
55549;PMS7003;41397;49.972;18.944;2023-12-04T06:56:28;54;45;31
55549;PMS7003;41397;49.972;18.944;2023-12-04T06:59:29;49;40;28
55549;PMS7003;41397;49.972;18.944;2023-12-04T07:02:30;59;48;28
55549;PMS7003;41397;49.972;18.944;2023-12-04T07:05:34;61;52;35
55549;PMS7003;41397;49.972;18.944;2023-12-04T07:08:36;53;43;25
55549;PMS7003;41397;49.972;18.944;2023-12-04T07:11:37;57;45;28
55549;PMS7003;41397;49.972;18.944;2023-12-04T07:14:38;52;44;31
55549;PMS7003;41397;49.972;18.944;2023-12-04T07:17:43;51;42;25
55549;PMS7003;41397;49.972;18.944;2023-12-04T07:20:44;64;52;31
55549;PMS7003;41397;49.972;18.944;2023-12-04T07:23:45;57;49;28
55549;PMS7003;41397;49.972;18.944;2023-12-04T07:26:46;61;45;30
55549;PMS7003;41397;49.972;18.944;2023-12-04T07:29:51;56;45;29
55549;PMS7003;41397;49.972;18.944;2023-12-04T07:32:52;53;43;30
55549;PMS7003;41397;49.972;18.944;2023-12-04T07:35:54;58;49;31
55549;PMS7003;41397;49.972;18.944;2023-12-04T07:38:55;58;47;30
55549;PMS7003;41397;49.972;18.944;2023-12-04T07:41:59;55;46;28
55549;PMS7003;41397;49.972;18.944;2023-12-04T07:45:01;63;54;35
55549;PMS7003;41397;49.972;18.944;2023-12-04T07:48:03;64;58;32
55549;PMS7003;41397;49.972;18.944;2023-12-04T07:51:04;65;55;35
55549;PMS7003;41397;49.972;18.944;2023-12-04T07:54:07;67;58;38
55549;PMS7003;41397;49.972;18.944;2023-12-04T07:57:09;70;65;38
55549;PMS7003;41397;49.972;18.944;2023-12-04T08:00:10;83;77;47
55549;PMS7003;41397;49.972;18.944;2023-12-04T08:03:12;85;75;46
55549;PMS7003;41397;49.972;18.944;2023-12-04T08:06:16;106;83;48
55549;PMS7003;41397;49.972;18.944;2023-12-04T08:09:19;95;80;45
55549;PMS7003;41397;49.972;18.944;2023-12-04T08:12:21;106;98;53
55549;PMS7003;41397;49.972;18.944;2023-12-04T08:15:28;103;90;46
55549;PMS7003;41397;49.972;18.944;2023-12-04T08:18:30;66;54;30
55549;PMS7003;41397;49.972;18.944;2023-12-04T08:21:31;56;46;30
55549;PMS7003;41397;49.972;18.944;2023-12-04T08:24:32;60;48;31
55549;PMS7003;41397;49.972;18.944;2023-12-04T08:27:34;34;27;7
55549;PMS7003;41397;49.972;18.944;2023-12-04T08:30:35;64;49;28
55549;PMS7003;41397;49.972;18.944;2023-12-04T08:33:36;54;42;26
55549;PMS7003;41397;49.972;18.944;2023-12-04T08:36:37;51;42;24
55549;PMS7003;41397;49.972;18.944;2023-12-04T08:39:39;49;39;22
55549;PMS7003;41397;49.972;18.944;2023-12-04T08:42:40;64;52;30
55549;PMS7003;41397;49.972;18.944;2023-12-04T08:45:42;63;50;33
55549;PMS7003;41397;49.972;18.944;2023-12-04T08:48:43;63;50;29
55549;PMS7003;41397;49.972;18.944;2023-12-04T08:51:46;47;35;27
55549;PMS7003;41397;49.972;18.944;2023-12-04T08:54:48;67;53;35
55549;PMS7003;41397;49.972;18.944;2023-12-04T08:57:50;68;58;36
55549;PMS7003;41397;49.972;18.944;2023-12-04T09:00:51;65;54;33
55549;PMS7003;41397;49.972;18.944;2023-12-04T09:03:52;67;60;34
55549;PMS7003;41397;49.972;18.944;2023-12-04T09:06:57;77;54;34
55549;PMS7003;41397;49.972;18.944;2023-12-04T09:09:59;53;44;30
55549;PMS7003;41397;49.972;18.944;2023-12-04T09:13:00;69;55;33
55549;PMS7003;41397;49.972;18.944;2023-12-04T09:16:01;73;62;35
55549;PMS7003;41397;49.972;18.944;2023-12-04T09:19:05;64;56;33
55549;PMS7003;41397;49.972;18.944;2023-12-04T09:22:06;68;57;33
55549;PMS7003;41397;49.972;18.944;2023-12-04T09:25:09;50;42;26
55549;PMS7003;41397;49.972;18.944;2023-12-04T09:28:10;60;51;33
55549;PMS7003;41397;49.972;18.944;2023-12-04T09:31:13;58;47;29
55549;PMS7003;41397;49.972;18.944;2023-12-04T09:34:14;58;47;31
55549;PMS7003;41397;49.972;18.944;2023-12-04T09:37:15;49;41;27
55549;PMS7003;41397;49.972;18.944;2023-12-04T09:40:17;64;49;29
55549;PMS7003;41397;49.972;18.944;2023-12-04T09:43:21;52;42;26
55549;PMS7003;41397;49.972;18.944;2023-12-04T09:46:22;48;40;27
55549;PMS7003;41397;49.972;18.944;2023-12-04T09:49:24;54;44;26
55549;PMS7003;41397;49.972;18.944;2023-12-04T09:52:29;50;42;26
55549;PMS7003;41397;49.972;18.944;2023-12-04T09:55:31;45;38;25
55549;PMS7003;41397;49.972;18.944;2023-12-04T09:58:32;41;35;22
55549;PMS7003;41397;49.972;18.944;2023-12-04T10:01:37;43;37;25
55549;PMS7003;41397;49.972;18.944;2023-12-04T10:04:41;49;39;23
55549;PMS7003;41397;49.972;18.944;2023-12-04T10:07:43;41;35;24
55549;PMS7003;41397;49.972;18.944;2023-12-04T10:10:45;46;39;25
55549;PMS7003;41397;49.972;18.944;2023-12-04T10:13:46;48;40;26
55549;PMS7003;41397;49.972;18.944;2023-12-04T10:16:47;45;39;25
55549;PMS7003;41397;49.972;18.944;2023-12-04T10:19:53;48;39;25
55549;PMS7003;41397;49.972;18.944;2023-12-04T10:23:04;41;34;24
55549;PMS7003;41397;49.972;18.944;2023-12-04T10:26:06;46;37;23
55549;PMS7003;41397;49.972;18.944;2023-12-04T10:29:08;50;40;25
55549;PMS7003;41397;49.972;18.944;2023-12-04T10:32:10;49;40;25
55549;PMS7003;41397;49.972;18.944;2023-12-04T10:35:12;42;36;23
55549;PMS7003;41397;49.972;18.944;2023-12-04T10:38:14;46;39;24
55549;PMS7003;41397;49.972;18.944;2023-12-04T10:41:16;45;36;24
55549;PMS7003;41397;49.972;18.944;2023-12-04T10:44:17;30;26;16
55549;PMS7003;41397;49.972;18.944;2023-12-04T10:47:21;39;35;18
55549;PMS7003;41397;49.972;18.944;2023-12-04T10:50:23;38;33;22
55549;PMS7003;41397;49.972;18.944;2023-12-04T10:53:24;40;34;23
55549;PMS7003;41397;49.972;18.944;2023-12-04T10:56:36;40;35;21
55549;PMS7003;41397;49.972;18.944;2023-12-04T10:59:37;33;30;21
55549;PMS7003;41397;49.972;18.944;2023-12-04T11:02:39;40;34;19
55549;PMS7003;41397;49.972;18.944;2023-12-04T11:05:49;39;34;21
55549;PMS7003;41397;49.972;18.944;2023-12-04T11:08:55;40;31;20
55549;PMS7003;41397;49.972;18.944;2023-12-04T11:11:59;30;27;17
55549;PMS7003;41397;49.972;18.944;2023-12-04T11:15:04;29;27;16
55549;PMS7003;41397;49.972;18.944;2023-12-04T11:18:11;24;23;17
55549;PMS7003;41397;49.972;18.944;2023-12-04T11:21:14;27;27;19
55549;PMS7003;41397;49.972;18.944;2023-12-04T11:24:17;27;26;17
55549;PMS7003;41397;49.972;18.944;2023-12-04T11:27:19;27;26;18
55549;PMS7003;41397;49.972;18.944;2023-12-04T11:30:22;25;23;11
55549;PMS7003;41397;49.972;18.944;2023-12-04T11:33:24;25;24;16
55549;PMS7003;41397;49.972;18.944;2023-12-04T11:36:25;27;26;13
55549;PMS7003;41397;49.972;18.944;2023-12-04T11:39:26;29;22;14
55549;PMS7003;41397;49.972;18.944;2023-12-04T11:42:30;30;29;15
55549;PMS7003;41397;49.972;18.944;2023-12-04T11:45:35;14;14;11
55549;PMS7003;41397;49.972;18.944;2023-12-04T11:48:40;22;22;16
55549;PMS7003;41397;49.972;18.944;2023-12-04T11:51:46;21;19;7
55549;PMS7003;41397;49.972;18.944;2023-12-04T11:58:08;27;25;14
55549;PMS7003;41397;49.972;18.944;2023-12-04T12:01:11;30;28;17
55549;PMS7003;41397;49.972;18.944;2023-12-04T12:04:14;19;19;16
55549;PMS7003;41397;49.972;18.944;2023-12-04T12:07:17;25;25;16
55549;PMS7003;41397;49.972;18.944;2023-12-04T12:10:19;21;21;15
55549;PMS7003;41397;49.972;18.944;2023-12-04T12:13:20;24;23;15
55549;PMS7003;41397;49.972;18.944;2023-12-04T12:16:22;22;22;14
55549;PMS7003;41397;49.972;18.944;2023-12-04T12:19:23;24;23;14
55549;PMS7003;41397;49.972;18.944;2023-12-04T12:22:25;26;22;14
55549;PMS7003;41397;49.972;18.944;2023-12-04T12:25:26;24;24;13
55549;PMS7003;41397;49.972;18.944;2023-12-04T12:28:28;24;24;15
55549;PMS7003;41397;49.972;18.944;2023-12-04T12:31:30;27;27;20
55549;PMS7003;41397;49.972;18.944;2023-12-04T12:34:32;34;32;20
55549;PMS7003;41397;49.972;18.944;2023-12-04T12:37:37;34;30;21
55549;PMS7003;41397;49.972;18.944;2023-12-04T12:40:40;42;37;24
55549;PMS7003;41397;49.972;18.944;2023-12-04T12:43:41;42;37;24
55549;PMS7003;41397;49.972;18.944;2023-12-04T12:46:46;47;40;27
55549;PMS7003;41397;49.972;18.944;2023-12-04T12:49:49;43;37;23
55549;PMS7003;41397;49.972;18.944;2023-12-04T12:52:51;44;38;25
55549;PMS7003;41397;49.972;18.944;2023-12-04T12:55:52;47;39;24
55549;PMS7003;41397;49.972;18.944;2023-12-04T12:58:53;52;44;27
55549;PMS7003;41397;49.972;18.944;2023-12-04T13:01:55;40;35;21
55549;PMS7003;41397;49.972;18.944;2023-12-04T13:04:57;37;33;21
55549;PMS7003;41397;49.972;18.944;2023-12-04T13:07:58;51;43;27
55549;PMS7003;41397;49.972;18.944;2023-12-04T13:10:59;43;32;17
55549;PMS7003;41397;49.972;18.944;2023-12-04T13:14:01;49;41;27
55549;PMS7003;41397;49.972;18.944;2023-12-04T13:17:02;42;34;20
55549;PMS7003;41397;49.972;18.944;2023-12-04T13:20:04;41;35;23
55549;PMS7003;41397;49.972;18.944;2023-12-04T13:23:13;41;35;24
55549;PMS7003;41397;49.972;18.944;2023-12-04T13:26:21;54;41;26
55549;PMS7003;41397;49.972;18.944;2023-12-04T13:29:23;41;36;24
55549;PMS7003;41397;49.972;18.944;2023-12-04T13:32:24;51;42;24
55549;PMS7003;41397;49.972;18.944;2023-12-04T13:35:26;44;36;22
55549;PMS7003;41397;49.972;18.944;2023-12-04T13:38:30;52;43;27
55549;PMS7003;41397;49.972;18.944;2023-12-04T13:41:31;48;39;24
55549;PMS7003;41397;49.972;18.944;2023-12-04T13:44:44;50;42;25
55549;PMS7003;41397;49.972;18.944;2023-12-04T13:47:45;47;37;21
55549;PMS7003;41397;49.972;18.944;2023-12-04T13:50:46;44;31;20
55549;PMS7003;41397;49.972;18.944;2023-12-04T13:53:50;59;45;27
55549;PMS7003;41397;49.972;18.944;2023-12-04T13:57:01;44;37;24
55549;PMS7003;41397;49.972;18.944;2023-12-04T14:00:05;50;41;25
55549;PMS7003;41397;49.972;18.944;2023-12-04T14:03:07;43;36;26
55549;PMS7003;41397;49.972;18.944;2023-12-04T14:06:09;58;46;27
55549;PMS7003;41397;49.972;18.944;2023-12-04T14:09:12;53;45;26
55549;PMS7003;41397;49.972;18.944;2023-12-04T14:12:19;54;43;26
55549;PMS7003;41397;49.972;18.944;2023-12-04T14:15:22;48;40;22
55549;PMS7003;41397;49.972;18.944;2023-12-04T14:18:25;62;52;31
55549;PMS7003;41397;49.972;18.944;2023-12-04T14:21:27;57;44;28
55549;PMS7003;41397;49.972;18.944;2023-12-04T14:24:29;59;47;28
55549;PMS7003;41397;49.972;18.944;2023-12-04T14:27:30;64;50;32
55549;PMS7003;41397;49.972;18.944;2023-12-04T14:30:33;86;76;37
55549;PMS7003;41397;49.972;18.944;2023-12-04T14:33:35;70;63;35
55549;PMS7003;41397;49.972;18.944;2023-12-04T14:36:36;60;50;29
55549;PMS7003;41397;49.972;18.944;2023-12-04T14:39:38;58;45;28
55549;PMS7003;41397;49.972;18.944;2023-12-04T14:42:43;69;63;31
55549;PMS7003;41397;49.972;18.944;2023-12-04T14:45:45;50;42;27
55549;PMS7003;41397;49.972;18.944;2023-12-04T14:48:46;49;36;27
55549;PMS7003;41397;49.972;18.944;2023-12-04T14:51:47;52;41;26
55549;PMS7003;41397;49.972;18.944;2023-12-04T14:54:50;48;39;25
55549;PMS7003;41397;49.972;18.944;2023-12-04T14:58:08;58;46;29
55549;PMS7003;41397;49.972;18.944;2023-12-04T15:01:27;49;41;28
55549;PMS7003;41397;49.972;18.944;2023-12-04T15:04:46;58;45;26
55549;PMS7003;41397;49.972;18.944;2023-12-04T15:07:58;55;44;27
55549;PMS7003;41397;49.972;18.944;2023-12-04T15:11:11;57;44;29
55549;PMS7003;41397;49.972;18.944;2023-12-04T15:14:24;58;46;25
55549;PMS7003;41397;49.972;18.944;2023-12-04T15:17:36;52;44;28
55549;PMS7003;41397;49.972;18.944;2023-12-04T15:20:49;58;46;30
55549;PMS7003;41397;49.972;18.944;2023-12-04T15:23:50;52;41;25
55549;PMS7003;41397;49.972;18.944;2023-12-04T15:26:52;58;45;28
55549;PMS7003;41397;49.972;18.944;2023-12-04T15:29:53;67;53;34
55549;PMS7003;41397;49.972;18.944;2023-12-04T15:32:55;59;46;27
55549;PMS7003;41397;49.972;18.944;2023-12-04T15:35:56;66;61;33
55549;PMS7003;41397;49.972;18.944;2023-12-04T15:38:57;59;47;30
55549;PMS7003;41397;49.972;18.944;2023-12-04T15:42:00;77;50;30
55549;PMS7003;41397;49.972;18.944;2023-12-04T15:45:07;62;53;29
55549;PMS7003;41397;49.972;18.944;2023-12-04T15:48:08;68;58;34
55549;PMS7003;41397;49.972;18.944;2023-12-04T15:51:11;66;57;31
55549;PMS7003;41397;49.972;18.944;2023-12-04T15:54:13;65;53;28
55549;PMS7003;41397;49.972;18.944;2023-12-04T15:57:14;72;65;38
55549;PMS7003;41397;49.972;18.944;2023-12-04T16:00:17;64;57;37
55549;PMS7003;41397;49.972;18.944;2023-12-04T16:03:18;71;63;37
55549;PMS7003;41397;49.972;18.944;2023-12-04T16:06:19;61;51;31
55549;PMS7003;41397;49.972;18.944;2023-12-04T16:09:21;55;45;29
55549;PMS7003;41397;49.972;18.944;2023-12-04T16:12:22;55;45;29
55549;PMS7003;41397;49.972;18.944;2023-12-04T16:15:23;67;58;32
55549;PMS7003;41397;49.972;18.944;2023-12-04T16:18:25;72;58;36
55549;PMS7003;41397;49.972;18.944;2023-12-04T16:21:26;65;56;34
55549;PMS7003;41397;49.972;18.944;2023-12-04T16:26:50;59;49;30
55549;PMS7003;41397;49.972;18.944;2023-12-04T16:29:56;51;42;26
55549;PMS7003;41397;49.972;18.944;2023-12-04T16:32:57;58;45;28
55549;PMS7003;41397;49.972;18.944;2023-12-04T16:35:59;56;46;28
55549;PMS7003;41397;49.972;18.944;2023-12-04T16:39:01;56;45;27
55549;PMS7003;41397;49.972;18.944;2023-12-04T16:42:02;56;45;29
55549;PMS7003;41397;49.972;18.944;2023-12-04T16:45:05;56;47;28
55549;PMS7003;41397;49.972;18.944;2023-12-04T16:48:07;51;41;28
55549;PMS7003;41397;49.972;18.944;2023-12-04T16:51:09;57;46;28
55549;PMS7003;41397;49.972;18.944;2023-12-04T16:54:11;55;46;29
55549;PMS7003;41397;49.972;18.944;2023-12-04T16:57:13;62;53;31
55549;PMS7003;41397;49.972;18.944;2023-12-04T17:00:15;60;48;32
55549;PMS7003;41397;49.972;18.944;2023-12-04T17:03:16;55;47;29
55549;PMS7003;41397;49.972;18.944;2023-12-04T17:06:18;63;52;30
55549;PMS7003;41397;49.972;18.944;2023-12-04T17:09:19;67;54;29
55549;PMS7003;41397;49.972;18.944;2023-12-04T17:12:23;58;45;29
55549;PMS7003;41397;49.972;18.944;2023-12-04T17:15:25;50;40;21
55549;PMS7003;41397;49.972;18.944;2023-12-04T17:18:26;66;52;31
55549;PMS7003;41397;49.972;18.944;2023-12-04T17:21:27;63;53;32
55549;PMS7003;41397;49.972;18.944;2023-12-04T17:24:32;55;45;28
55549;PMS7003;41397;49.972;18.944;2023-12-04T17:27:34;66;53;31
55549;PMS7003;41397;49.972;18.944;2023-12-04T17:30:35;57;46;26
55549;PMS7003;41397;49.972;18.944;2023-12-04T17:33:37;58;43;28
55549;PMS7003;41397;49.972;18.944;2023-12-04T17:36:40;62;54;32
55549;PMS7003;41397;49.972;18.944;2023-12-04T17:39:43;65;43;27
55549;PMS7003;41397;49.972;18.944;2023-12-04T17:42:44;63;51;31
55549;PMS7003;41397;49.972;18.944;2023-12-04T17:45:46;67;55;32
55549;PMS7003;41397;49.972;18.944;2023-12-04T17:48:49;65;58;35
55549;PMS7003;41397;49.972;18.944;2023-12-04T17:51:50;69;56;33
55549;PMS7003;41397;49.972;18.944;2023-12-04T17:54:52;70;61;32
55549;PMS7003;41397;49.972;18.944;2023-12-04T17:57:53;67;58;34
55549;PMS7003;41397;49.972;18.944;2023-12-04T18:00:57;62;57;37
55549;PMS7003;41397;49.972;18.944;2023-12-04T18:03:59;70;57;34
55549;PMS7003;41397;49.972;18.944;2023-12-04T18:07:02;67;56;35
55549;PMS7003;41397;49.972;18.944;2023-12-04T18:10:06;64;56;34
55549;PMS7003;41397;49.972;18.944;2023-12-04T18:13:08;64;57;31
55549;PMS7003;41397;49.972;18.944;2023-12-04T18:16:09;60;52;33
55549;PMS7003;41397;49.972;18.944;2023-12-04T18:19:10;65;54;33
55549;PMS7003;41397;49.972;18.944;2023-12-04T18:22:12;69;64;40
55549;PMS7003;41397;49.972;18.944;2023-12-04T18:25:14;92;72;45
55549;PMS7003;41397;49.972;18.944;2023-12-04T18:28:16;80;78;46
55549;PMS7003;41397;49.972;18.944;2023-12-04T18:31:17;77;69;40
55549;PMS7003;41397;49.972;18.944;2023-12-04T18:34:20;66;59;35
55549;PMS7003;41397;49.972;18.944;2023-12-04T18:37:23;70;59;34
55549;PMS7003;41397;49.972;18.944;2023-12-04T18:40:32;72;59;34
55549;PMS7003;41397;49.972;18.944;2023-12-04T18:43:34;68;64;38
55549;PMS7003;41397;49.972;18.944;2023-12-04T18:46:36;74;64;36
55549;PMS7003;41397;49.972;18.944;2023-12-04T18:49:40;67;62;37
55549;PMS7003;41397;49.972;18.944;2023-12-04T18:52:49;59;47;27
55549;PMS7003;41397;49.972;18.944;2023-12-04T18:55:51;65;58;40
55549;PMS7003;41397;49.972;18.944;2023-12-04T18:58:52;64;57;36
55549;PMS7003;41397;49.972;18.944;2023-12-04T19:01:53;70;67;41
55549;PMS7003;41397;49.972;18.944;2023-12-04T19:04:57;75;69;35
55549;PMS7003;41397;49.972;18.944;2023-12-04T19:07:58;67;60;31
55549;PMS7003;41397;49.972;18.944;2023-12-04T19:11:02;68;64;36
55549;PMS7003;41397;49.972;18.944;2023-12-04T19:14:03;82;77;47
55549;PMS7003;41397;49.972;18.944;2023-12-04T19:17:06;84;73;46
55549;PMS7003;41397;49.972;18.944;2023-12-04T19:20:07;122;104;55